Flight Track Log - Related Links

Times and Time Zones

All times are in EDT time to prevent confusion due to time zone crossing. See the RPA3228 flight status page for this flight to view local times or setup timezone preferences in your user account.

Time Position Orientation Groundspeed Altitude Reporting Facility
EDT Latitude Longitude Course Direction KTS MPH feet Rate Location/Type
Thu 07:35:04 AM 36.1333 -86.6833 68° East 152 175 1,400  Level Nashville TRACON
Thu 07:35:28 AM 36.1500 -86.7000 321° Northwest 149 171 2,400 2,071 Climbing Nashville TRACON
Thu 07:36:28 AM 36.1000 -86.7500 219° Southwest 233 268 4,300 2,450 Climbing Nashville TRACON
Thu 07:37:00 AM 36.2428 -86.3227 80° East  Level Estimated
Thu 07:37:28 AM 36.0500 -86.7167 152° Southeast 305 351 7,300  Level Nashville TRACON
Thu 07:38:00 AM 36.2820 -86.2039 64° Northeast  Level Estimated
Thu 07:38:40 AM 36.0683 -86.6003 79° East 303 349 11,100  Level Memphis Center
Thu 07:39:00 AM 36.3211 -86.0851 68° East  Level Estimated
Thu 07:39:40 AM 36.0964 -86.4936 72° East 310 357 13,300  Level Memphis Center
Thu 07:40:00 AM 36.3601 -85.9661 68° East  Level Estimated
Thu 07:40:40 AM 36.1239 -86.3794 73° East 331 381 15,000  Level Memphis Center
Thu 07:41:40 AM 36.1536 -86.2622 73° East 352 405 17,000 1,850 Climbing Memphis Center
Thu 07:42:40 AM 36.1850 -86.1422 72° East 357 411 18,700 1,850 Climbing Memphis Center
Thu 07:43:40 AM 36.2247 -86.0244 67° East 369 425 20,700 1,800 Climbing Memphis Center
Thu 07:44:40 AM 36.2744 -85.9033 63° Northeast 376 433 22,300 1,522 Climbing Memphis Center
Thu 07:45:58 AM 36.3408 -85.7575 60° Northeast 392 451 24,200 1,468 Climbing Indianapolis Center
Thu 07:46:59 AM 36.3981 -85.6392 59° Northeast 397 457 25,700 1,512 Climbing Indianapolis Center
Thu 07:48:01 AM 36.4569 -85.5167 59° Northeast 408 470 27,300 1,122 Climbing Indianapolis Center
Thu 07:49:02 AM 36.5386 -85.4178 44° Northeast 406 467 28,000 341 Climbing Indianapolis Center
Thu 07:50:04 AM 36.6250 -85.3211 42° Northeast 414 476 28,000 49 Level Indianapolis Center
Thu 07:51:05 AM 36.7100 -85.2244 42° Northeast 413 475 28,100 689 Climbing Indianapolis Center
Thu 07:52:06 AM 36.7967 -85.1294 41° Northeast 413 475 29,400 1,317 Climbing Indianapolis Center
Thu 07:53:08 AM 36.8839 -85.0317 42° Northeast 418 481 30,800 1,707 Climbing Indianapolis Center
Thu 07:54:09 AM 36.9803 -84.9003 47° Northeast 429 494 32,900 1,073 Climbing Indianapolis Center
Thu 07:55:11 AM 37.0350 -84.7769 61° Northeast 411 473 33,000 49 Climbing Indianapolis Center
Thu 07:56:12 AM 37.0883 -84.6644 59° Northeast 394 453 33,000  Level Indianapolis Center
Thu 07:57:14 AM 37.1417 -84.5458 61° Northeast 391 450 33,000  Level Indianapolis Center
Thu 07:58:15 AM 37.1958 -84.4247 61° Northeast 394 453 33,000 -195 Level Indianapolis Center
Thu 07:59:17 AM 37.2508 -84.3036 60° Northeast 397 457 32,600 -829 Descending Indianapolis Center
Thu 08:00:18 AM 37.3050 -84.1822 61° Northeast 398 458 31,300 -780 Descending Indianapolis Center
Thu 08:01:20 AM 37.3708 -84.0369 60° Northeast 408 470 31,000 -146 Descending Indianapolis Center
Thu 08:02:21 AM 37.4267 -83.9119 61° Northeast 408 470 31,000  Level Indianapolis Center
Thu 08:03:23 AM 37.4825 -83.7844 61° Northeast 411 473 31,000  Level Indianapolis Center
Thu 08:04:24 AM 37.5383 -83.6589 61° Northeast 410 472 31,000  Level Indianapolis Center
Thu 08:05:26 AM 37.5942 -83.5331 61° Northeast 409 471 31,000  Level Indianapolis Center
Thu 08:06:28 AM 37.6506 -83.4067 61° Northeast 411 473 31,000  Level Indianapolis Center
Thu 08:07:29 AM 37.7069 -83.2764 61° Northeast 423 487 31,000  Level Indianapolis Center
Thu 08:08:31 AM 37.7633 -83.1486 61° Northeast 434 499 31,000  Level Indianapolis Center
Thu 08:09:32 AM 37.8183 -83.0189 62° Northeast 418 481 31,000  Level Indianapolis Center
Thu 08:10:34 AM 37.8831 -82.8736 61° Northeast 408 470 31,000  Level Indianapolis Center
Thu 08:11:35 AM 37.9381 -82.7442 62° Northeast 412 474 31,000  Level Indianapolis Center
Thu 08:12:37 AM 37.9936 -82.6164 61° Northeast 411 473 31,000  Level Indianapolis Center
Thu 08:13:38 AM 38.0283 -82.4761 73° East 414 476 31,000  Level Indianapolis Center
Thu 08:14:40 AM 38.0497 -82.3306 79° East 419 482 31,000  Level Indianapolis Center
Thu 08:15:42 AM 38.0692 -82.1819 81° East 424 488 31,000  Level Indianapolis Center
Thu 08:16:43 AM 38.0897 -82.0339 80° East 422 486 31,000  Level Indianapolis Center
Thu 08:17:45 AM 38.1092 -81.8889 80° East 419 482 31,000  Level Indianapolis Center
Thu 08:18:47 AM 38.1283 -81.7428 80° East 422 486 31,000  Level Indianapolis Center
Thu 08:19:48 AM 38.1506 -81.5692 81° East 420 483 31,000  Level Indianapolis Center
Thu 08:20:50 AM 38.1689 -81.4231 81° East 422 486 31,000  Level Indianapolis Center
Thu 08:21:52 AM 38.1878 -81.2764 81° East 423 487 31,000  Level Indianapolis Center
Thu 08:22:53 AM 38.2056 -81.1308 81° East 421 484 31,000  Level Indianapolis Center
Thu 08:23:55 AM 38.2242 -80.9814 81° East 424 488 31,000  Level Indianapolis Center
Thu 08:24:57 AM 38.2425 -80.8361 81° East 423 487 31,000  Level Indianapolis Center
Thu 08:25:58 AM 38.2653 -80.6592 81° East 424 488 31,000  Level Indianapolis Center
Thu 08:27:00 AM 38.2831 -80.5122 81° East 424 488 31,000  Level Indianapolis Center
Thu 08:28:01 AM 38.3000 -80.3675 81° East 418 481 31,000  Level Indianapolis Center
Thu 08:29:03 AM 38.3228 -80.2222 79° East 418 481 31,000  Level Indianapolis Center
Thu 08:30:05 AM 38.3486 -80.0869 76° East 420 483 31,000  Level Indianapolis Center
Thu 08:31:06 AM 38.3536 -79.9122 88° East 423 487 31,000  Level Indianapolis Center
Thu 08:32:08 AM 38.3694 -79.7683 82° East 421 484 31,000  Level Indianapolis Center
Thu 08:33:10 AM 38.3853 -79.6225 82° East 424 488 31,000 -780 Level Indianapolis Center
Thu 08:34:11 AM 38.4017 -79.4781 82° East 423 487 29,400 -1,867 Descending Indianapolis Center
Thu 08:35:25 AM 38.4294 -79.2811 80° East 423 487 26,800 -1,522 Descending Washington Center
Thu 08:36:25 AM 38.4547 -79.1339 78° East 423 487 26,000 -407 Descending Washington Center
Thu 08:37:23 AM 38.4797 -78.9892 78° East 423 487 26,000 -100 Level Washington Center
Thu 08:38:25 AM 38.5025 -78.8389 79° East 428 493 25,800 -1,200 Descending Washington Center
Thu 08:39:23 AM 38.5275 -78.6914 78° East 428 493 23,600 -1,866 Descending Washington Center
Thu 08:40:24 AM 38.5478 -78.5489 80° East 428 493 22,100 -1,240 Descending Washington Center
Thu 08:41:24 AM 38.5697 -78.4064 79° East 418 481 21,100 -1,388 Descending Washington Center
Thu 08:42:25 AM 38.5939 -78.2692 77° East 405 466 19,300 -1,750 Descending Washington Center
Thu 08:43:24 AM 38.6322 -78.1378 69° East 398 458 17,600 -1,750 Descending Washington Center
Thu 08:44:25 AM 38.6722 -78.0142 67° East 387 445 15,800 -1,785 Descending Washington Center
Thu 08:45:25 AM 38.7100 -77.8956 68° East 367 422 14,000 -1,678 Descending Washington Center
Thu 08:46:23 AM 38.7536 -77.7958 61° Northeast 338 389 12,500 -1,412 Descending Washington Center
Thu 08:47:24 AM 38.8092 -77.7122 50° Northeast 315 362 11,200 -1,339 Descending Washington Center
Thu 08:48:24 AM 38.8689 -77.6314 46° Northeast 310 357 9,800 -1,405 Descending Washington Center
Thu 08:49:15 AM 38.9167 -77.5500 53° Northeast 304 350 8,600 -973 Descending Potomac TRACON
Thu 08:50:15 AM 38.9667 -77.4667 52° Northeast 289 333 8,000 -850 Descending Potomac TRACON
Thu 08:51:15 AM 38.9833 -77.3667 78° East 285 328 6,900 -1,526 Descending Potomac TRACON
Thu 08:52:09 AM 39.0167 -77.2833 63° Northeast 273 314 5,100 -1,389 Descending Potomac TRACON
Thu 08:53:03 AM 39.0333 -77.2167 72° East 239 275 4,400 -1,043 Descending Potomac TRACON
Thu 08:54:04 AM 39.0167 -77.1833 123° Southeast 186 214 3,100 -793 Descending Potomac TRACON
Thu 08:55:04 AM 38.9667 -77.1500 153° Southeast 189 217 2,800 -650 Descending Potomac TRACON
Thu 08:56:04 AM 38.9333 -77.1167 142° Southeast 188 216 1,800 -1,043 Descending Potomac TRACON
Thu 08:56:59 AM 38.9000 -77.0833 142° Southeast 149 171 800 -730 Descending Potomac TRACON
Thu 08:57:59 AM 38.8833 -77.0500 123° Southeast 126 145 400 -400 Descending Potomac TRACON

Login

Don't have an account? Register now (free) for customized features, flight alerts, and more!